KENV

Wendover Airport

Wendover, Utah, USA
METAR KENV 212356Z AUTO 16005KT 10SM FEW075 M01/M12 A3009 RMK AO2 SLP230 T10061117 11006 21050 56006 FZRANO
Observed Flight Rules
Feb-21 @ 23:56 UTC (5 hours ago) Visual Flight Rules
Wind Visibility Clouds
160° at 5 knots 10 miles
  • Few at 7,500' AGL
Temperatures Readings
Current -1°C / 30°F
Dewpoint -12°C / 10°F
Humidity 43%
Altimeter 30.09" Hg
Pressure 1023 hPa
Elevation 1292
METAR KENV 212356Z AUTO 16005KT 10SM FEW075 M01/M12 A3009 RMK AO2 SLP230 T10061117 11006 21050 56006 FZRANO
Observed Flight Rules
Feb-21 @ 23:56 UTC
(5 hours ago)
VFR
Wind Visibility
160° at 5 knots 10 miles
Clouds
  • Few at 7,500' AGL
Temperature Dewpoint
-1°C / 30°F -12°C / 10°F
Humidity Altimeter Pressure
43% 30.09" Hg 1023 hPa